Latest Coastal Weather Observations for Bedout Island

IDW60701

Issued at 6:32 am WST Friday 27 March 2015 (issued every 10 minutes, with the page automatically refreshed every 10 minutes)

About coastal observations | Map of coastal stations | Coastal observations for WA | Marine services | Other Formats
Station Details ID: 004100 Name: BEDOUT ISLAND Lat: -19.59 Lon: 119.10 Height: 8.6 m
Data from the previous 72 hours. | See also: Recent months for locations in Western Australia
Date/Time
WST
Temp

°C
Wind Pressure Rain
since 9am
mm
Weather Cloud Vis
km
Sea
Height
m
Swell
Dir
 
Speed
knots
Gust
knots
hPa Trend Height
m
Period
s
Dir
27/06:30am 28.4 S 12 14 1012.7 - - - - - - - - -
27/06:00am 28.3 SW 11 13 1012.4 - - - - - - - - -
27/05:30am 28.0 WSW 7 8 1012.6 - - - - - - - - -
27/05:00am 27.8 W 5 7 1012.4 - - - - - - - - -
27/04:30am 28.0 W 5 6 1012.4 - - - - - - - - -
27/04:00am 27.9 N 3 5 1012.3 - - - - - - - - -
27/03:30am 27.8 NNE 1 5 1012.5 - - - - - - - - -
27/03:00am 28.7 NE 5 7 1012.8 - - - - - - - - -
27/02:30am 28.9 SW 8 11 1012.7 - - - - - - - - -
27/02:00am 29.2 SSW 13 15 1012.5 - - - - - - - - -
27/01:30am 29.1 SW 13 14 1012.6 - - - - - - - - -
27/01:00am 29.1 SW 14 16 1012.9 - - - - - - - - -
27/12:30am 29.0 SW 11 13 1013.1 - - - - - - - - -
27/12:00am 28.8 WSW 10 12 1013.2 - - - - - - - - -
 
Date/Time
WST
Temp

°C
Wind Pressure Rain
since 9am
mm
Weather Cloud Vis
km
Sea
Height
m
Swell
Dir
 
Speed
knots
Gust
knots
hPa Trend Height
m
Period
s
Dir
26/11:30pm 28.9 WSW 11 13 1013.4 - - - - - - - - -
26/11:00pm 28.8 SW 12 13 1013.5 - - - - - - - - -
26/10:30pm 28.7 SW 10 12 1013.8 - - - - - - - - -
26/10:00pm 28.6 SW 8 11 1013.9 - - - - - - - - -
26/09:30pm 28.7 SW 8 11 1013.8 - - - - - - - - -
26/09:00pm 28.8 WSW 9 10 1013.2 - - - - - - - - -
26/08:30pm 28.6 NNW 6 8 1012.9 - - - - - - - - -
26/08:00pm 29.0 N 8 8 1012.4 - - - - - - - - -
26/07:30pm 29.1 N 8 8 1012.3 - - - - - - - - -
26/07:00pm 29.2 N 7 8 1012.0 - - - - - - - - -
26/06:30pm 29.4 NNE 6 7 1011.8 - - - - - - - - -
26/06:00pm 30.1 NNE 6 7 1011.5 - - - - - - - - -
26/05:30pm 31.0 NE 5 6 1011.4 - - - - - - - - -
26/05:00pm 31.5 NE 6 7 1011.3 - - - - - - - - -
26/04:30pm 32.5 NE 6 8 1011.3 - - - - - - - - -
26/04:00pm 32.2 E 6 6 1011.5 - - - - - - - - -
26/03:30pm 32.8 E 6 7 1011.3 - - - - - - - - -
26/03:00pm 32.9 E 6 6 1011.3 - - - - - - - - -
26/02:30pm 33.0 E 7 8 1011.5 - - - - - - - - -
26/02:00pm 33.9 E 9 10 1011.6 - - - - - - - - -
26/01:30pm 33.6 E 12 13 1011.8 - - - - - - - - -
26/01:00pm 33.6 E 13 15 1012.2 - - - - - - - - -
26/12:30pm 33.2 E 16 17 1012.6 - - - - - - - - -
26/12:00pm 33.2 E 17 19 1012.8 - - - - - - - - -
26/11:30am 32.8 E 16 19 1013.3 - - - - - - - - -
26/11:00am 32.9 E 18 20 1013.6 - - - - - - - - -
26/10:30am 32.8 ESE 15 17 1014.0 - - - - - - - - -
26/10:00am 31.6 ESE 17 19 1014.4 - - - - - - - - -
26/09:30am 31.3 ESE 18 21 1014.5 - - - - - - - - -
26/09:00am 30.6 ESE 19 22 1014.5 - - - - - - - - -
26/08:30am 30.6 ESE 19 22 1014.5 - - - - - - - - -
26/08:00am 30.4 ESE 20 23 1014.1 - - - - - - - - -
26/07:30am 30.2 ESE 21 24 1013.8 - - - - - - - - -
26/07:00am 30.1 ESE 21 25 1013.4 - - - - - - - - -
26/06:30am 30.2 ESE 21 25 1013.0 - - - - - - - - -
26/06:00am 30.2 ESE 20 23 1012.6 - - - - - - - - -
26/05:30am 29.3 SE 16 18 1012.5 - - - - - - - - -
26/05:00am 28.8 SE 14 17 1012.2 - - - - - - - - -
26/04:30am 28.9 S 14 15 1012.0 - - - - - - - - -
26/04:00am 28.8 SSW 14 16 1011.7 - - - - - - - - -
26/03:30am 29.2 SSW 15 17 1011.7 - - - - - - - - -
26/03:00am 29.2 SW 14 18 1011.5 - - - - - - - - -
26/02:30am 29.4 SSW 13 15 1011.7 - - - - - - - - -
26/02:00am 29.2 SW 11 14 1011.8 - - - - - - - - -
26/01:30am 28.9 SW 14 16 1011.9 - - - - - - - - -
26/01:00am 29.0 SW 16 18 1012.2 - - - - - - - - -
26/12:30am 29.2 SW 16 19 1012.4 - - - - - - - - -
26/12:00am 29.0 SW 17 19 1012.3 - - - - - - - - -
 
Date/Time
WST
Temp

°C
Wind Pressure Rain
since 9am
mm
Weather Cloud Vis
km
Sea
Height
m
Swell
Dir
 
Speed
knots
Gust
knots
hPa Trend Height
m
Period
s
Dir
25/11:30pm 29.0 SW 14 18 1012.5 - - - - - - - - -
25/11:00pm 28.5 SW 8 9 1012.5 - - - - - - - - -
25/10:30pm 28.5 WSW 10 11 1012.8 - - - - - - - - -
25/10:00pm 28.4 WSW 9 10 1012.7 - - - - - - - - -
25/09:30pm 28.0 WSW 7 8 1012.7 - - - - - - - - -
25/09:00pm 27.9 WSW 7 8 1012.5 - - - - - - - - -
25/08:30pm 28.0 W 6 7 1012.4 - - - - - - - - -
25/08:00pm 28.3 W 7 8 1012.1 - - - - - - - - -
25/07:30pm 28.5 WSW 7 9 1011.9 - - - - - - - - -
25/07:00pm 28.7 WSW 5 6 1011.7 - - - - - - - - -
25/06:30pm 29.2 W 4 6 1011.3 - - - - - - - - -
25/06:00pm 29.5 N 5 5 1010.9 - - - - - - - - -
25/05:30pm 30.3 N 6 7 1010.8 - - - - - - - - -
25/05:00pm 31.0 N 7 8 1010.7 - - - - - - - - -
25/04:30pm 31.4 N 6 7 1010.7 - - - - - - - - -
25/04:00pm 31.7 N 6 7 1010.6 - - - - - - - - -
25/03:30pm 32.2 NNE 8 9 1010.7 - - - - - - - - -
25/03:00pm 32.4 NE 6 7 1010.7 - - - - - - - - -
25/02:30pm 32.9 NE 6 8 1011.1 - - - - - - - - -
25/02:00pm 33.2 ENE 8 9 1011.1 - - - - - - - - -
25/01:30pm 33.6 E 10 12 1011.4 - - - - - - - - -
25/01:00pm 33.3 E 13 15 1011.7 - - - - - - - - -
25/12:30pm 32.9 E 15 17 1011.9 - - - - - - - - -
25/12:00pm 32.6 E 18 21 1012.2 - - - - - - - - -
25/11:30am 32.3 ESE 18 21 1012.8 - - - - - - - - -
25/11:00am 32.1 ESE 19 21 1013.4 - - - - - - - - -
25/10:30am 31.5 ESE 21 24 1013.7 - - - - - - - - -
25/10:00am 30.6 ESE 21 25 1014.1 - - - - - - - - -
25/09:30am 30.8 ESE 21 24 1014.2 - - - - - - - - -
25/09:00am 30.2 ESE 23 27 1014.2 - - - - - - - - -
25/08:30am 30.0 ESE 24 30 1014.2 - - - - - - - - -
25/08:00am 29.6 ESE 28 34 1013.9 - - - - - - - - -
25/07:30am 29.0 ESE 28 34 1013.6 - - - - - - - - -
25/07:00am 28.8 ESE 29 34 1013.1 - - - - - - - - -
25/06:30am 29.0 ESE 27 30 1013.2 - - - - - - - - -
25/06:23am 28.4 ESE 26 30 1013.2 - - - - - - - - -
25/06:00am 27.8 SSE 21 24 1013.1 - - - - - - - - -
25/05:30am 27.7 SSE 20 23 1013.0 - - - - - - - - -
25/05:00am 27.7 S 18 22 1012.8 - - - - - - - - -
25/04:30am 28.5 S 15 19 1012.5 - - - - - - - - -
25/04:00am 28.8 S 15 17 1012.5 - - - - - - - - -
25/03:30am 28.7 SSW 18 22 1012.4 - - - - - - - - -
25/03:00am 28.9 SSW 14 17 1012.4 - - - - - - - - -
25/02:30am 28.0 SW 9 9 1012.4 - - - - - - - - -
25/02:00am 28.0 WSW 9 10 1012.3 - - - - - - - - -
25/01:30am 27.6 W 6 8 1012.3 - - - - - - - - -
25/01:00am 27.4 W 5 6 1012.3 - - - - - - - - -
25/12:30am 27.4 N 2 6 1012.3 - - - - - - - - -
25/12:00am 27.4 N 3 3 1012.1 - - - - - - - - -
 
Date/Time
WST
Temp

°C
Wind Pressure Rain
since 9am
mm
Weather Cloud Vis
km
Sea
Height
m
Swell
Dir
 
Speed
knots
Gust
knots
hPa Trend Height
m
Period
s
Dir
24/11:30pm 27.4 CALM 0 1 1012.1 - - - - - - - - -
24/11:00pm 27.1 CALM 0 0 1012.0 - - - - - - - - -
24/10:30pm 27.0 CALM 0 3 1012.0 - - - - - - - - -
24/10:00pm 27.3 N 3 5 1012.1 - - - - - - - - -
24/09:30pm 27.9 N 9 10 1012.0 - - - - - - - - -
24/09:00pm 28.1 NNE 11 12 1011.6 - - - - - - - - -
24/08:30pm 28.2 NNE 9 10 1011.6 - - - - - - - - -
24/08:00pm 28.3 NNE 8 9 1011.3 - - - - - - - - -
24/07:30pm 28.5 NNE 10 11 1010.9 - - - - - - - - -
24/07:00pm 28.8 NE 9 10 1010.8 - - - - - - - - -
24/06:30pm 29.0 E 7 9 1010.5 - - - - - - - - -
24/06:00pm 29.4 E 7 8 1010.2 - - - - - - - - -
24/05:30pm 30.0 E 8 9 1010.2 - - - - - - - - -
24/05:00pm 30.9 E 7 8 1010.3 - - - - - - - - -
24/04:30pm 31.1 E 9 10 1010.2 - - - - - - - - -
24/04:00pm 31.3 E 10 11 1010.1 - - - - - - - - -
24/03:30pm 31.7 E 10 11 1010.2 - - - - - - - - -
24/03:00pm 31.5 E 10 11 1010.1 - - - - - - - - -
24/02:30pm 31.7 ENE 11 12 1010.2 - - - - - - - - -
24/02:00pm 31.7 ENE 13 14 1010.3 - - - - - - - - -
24/01:30pm 31.2 ENE 15 17 1010.4 - - - - - - - - -
24/01:00pm 31.1 ENE 18 20 1010.7 - - - - - - - - -
24/12:30pm 31.2 ENE 18 22 1011.2 - - - - - - - - -
24/12:00pm 30.8 ENE 19 23 1011.4 - - - - - - - - -
24/11:30am 31.4 E 18 21 1011.9 - - - - - - - - -
24/11:00am 31.3 ESE 18 21 1012.4 - - - - - - - - -
24/10:30am 31.2 ESE 20 23 1012.4 - - - - - - - - -
24/10:00am 30.3 ESE 21 25 1012.7 - - - - - - - - -
24/09:30am 29.9 ESE 23 26 1013.0 - - - - - - - - -
24/09:00am 29.7 ESE 24 29 1012.9 - - - - - - - - -
24/08:30am 29.3 ESE 24 28 1013.3 - - - - - - - - -
24/08:00am 28.7 SE 26 32 1013.3 - - - - - - - - -
24/07:30am 28.2 ESE 26 30 1013.0 - - - - - - - - -
24/07:00am 27.9 ESE 29 35 1012.7 - - - - - - - - -

Other Formats:

Comma delimited format used in spreadsheet applications
http://www.bom.gov.au/fwo/IDW60701/IDW60701.94310.axf

JavaScript Object Notation format (JSON) in row-major order
http://www.bom.gov.au/fwo/IDW60701/IDW60701.94310.json